createdAt,value
2019-02-27T00:02:08.461Z,96.74
2019-02-27T00:07:32.977Z,96.64
2019-02-27T00:12:56.657Z,96.57
2019-02-27T00:18:23.757Z,96.55
2019-02-27T00:23:47.192Z,96.88
2019-02-27T00:29:10.993Z,97.16
2019-02-27T00:34:35.496Z,97.61
2019-02-27T00:39:59.439Z,97.61
2019-02-27T00:45:23.796Z,97.74
2019-02-27T00:50:48.187Z,97.67
2019-02-27T00:56:12.963Z,97.62
2019-02-27T01:01:37.136Z,97.77
2019-02-27T01:07:01.012Z,97.61
2019-02-27T01:12:25.875Z,97.61
2019-02-27T01:17:50.312Z,97.48
2019-02-27T01:23:15.086Z,97.55
2019-02-27T01:28:44.710Z,97.60
2019-02-27T01:34:05.776Z,97.39
2019-02-27T01:39:30.653Z,97.51
2019-02-27T01:44:54.428Z,97.78
2019-02-27T01:50:30.920Z,98.07
2019-02-27T01:55:56.469Z,98.09
2019-02-27T02:01:21.616Z,98.05
2019-02-27T02:06:45.240Z,97.95
2019-02-27T02:12:18.996Z,97.81
2019-02-27T02:18:30.137Z,97.68
2019-02-27T02:24:37.419Z,97.57
2019-02-27T02:30:38.651Z,97.58
2019-02-27T02:36:24.954Z,97.70
2019-02-27T02:42:15.627Z,97.79
2019-02-27T02:47:55.814Z,97.74
2019-02-27T02:53:31.476Z,97.68
2019-02-27T02:59:45.783Z,97.67
2019-02-27T03:06:02.101Z,97.60
2019-02-27T03:11:54.203Z,97.50
2019-02-27T03:18:02.498Z,97.40
2019-02-27T03:23:40.381Z,97.26
2019-02-27T03:29:17.335Z,97.06
2019-02-27T03:35:08.243Z,96.96
2019-02-27T03:41:07.058Z,96.80
2019-02-27T03:46:50.445Z,96.69
2019-02-27T03:52:40.144Z,96.64
2019-02-27T03:58:26.848Z,96.62
2019-02-27T04:04:14.819Z,96.66
2019-02-27T04:09:38.853Z,96.67
2019-02-27T04:15:04.068Z,96.54
2019-02-27T04:20:27.908Z,96.55
2019-02-27T04:25:52.728Z,96.55
2019-02-27T04:31:16.344Z,96.71
2019-02-27T04:36:40.845Z,97.00
2019-02-27T04:42:05.540Z,97.20
2019-02-27T04:47:30.049Z,97.23
2019-02-27T04:52:57.591Z,97.31
2019-02-27T04:58:19.577Z,97.20
2019-02-27T05:03:43.554Z,96.91
2019-02-27T05:09:08.262Z,96.73
2019-02-27T05:14:33.335Z,96.89
2019-02-27T05:19:57.029Z,96.94
2019-02-27T05:25:20.799Z,96.61
2019-02-27T05:30:45.927Z,96.46
2019-02-27T05:36:10.122Z,96.35
2019-02-27T05:41:33.947Z,96.30
2019-02-27T05:46:58.509Z,96.29
2019-02-27T05:52:22.234Z,96.21
2019-02-27T05:57:46.974Z,96.06
2019-02-27T06:03:11.512Z,96.01
2019-02-27T06:08:38.049Z,95.93
2019-02-27T06:14:02.566Z,95.95
2019-02-27T06:19:26.635Z,95.86
2019-02-27T06:24:50.489Z,95.70
2019-02-27T06:30:16.573Z,95.43
2019-02-27T06:35:40.622Z,94.71
2019-02-27T06:41:05.378Z,94.17
2019-02-27T06:46:29.505Z,93.43
2019-02-27T06:51:53.112Z,92.96
2019-02-27T06:57:17.757Z,92.38
2019-02-27T07:02:42.609Z,91.42
2019-02-27T07:08:06.715Z,90.50
2019-02-27T07:13:30.460Z,89.49
2019-02-27T07:18:54.372Z,88.49
2019-02-27T07:24:18.283Z,86.43
2019-02-27T07:29:43.112Z,83.70
2019-02-27T07:35:07.200Z,80.58
2019-02-27T07:40:31.113Z,78.91
2019-02-27T07:45:55.922Z,75.55
2019-02-27T07:51:23.206Z,76.09
2019-02-27T07:56:47.137Z,74.00
2019-02-27T08:02:12.210Z,75.61
2019-02-27T08:07:36.095Z,74.27
2019-02-27T08:13:00.160Z,72.92
2019-02-27T08:18:30.152Z,74.32
2019-02-27T08:23:50.656Z,76.38
2019-02-27T08:29:14.407Z,77.45
2019-02-27T08:34:38.041Z,78.39
2019-02-27T08:40:02.661Z,77.86
2019-02-27T08:45:27.772Z,76.72
2019-02-27T08:50:51.980Z,75.03
2019-02-27T08:56:16.843Z,72.67
2019-02-27T09:01:42.838Z,68.30
2019-02-27T09:07:07.234Z,65.17
2019-02-27T09:12:32.227Z,64.78
2019-02-27T09:17:59.290Z,63.04
2019-02-27T09:23:22.258Z,61.67
2019-02-27T09:28:46.719Z,57.06
2019-02-27T09:34:11.387Z,52.29
2019-02-27T09:39:35.237Z,51.42
2019-02-27T09:44:59.407Z,48.39
2019-02-27T09:50:37.736Z,46.80
2019-02-27T09:56:01.680Z,44.17
2019-02-27T10:01:26.153Z,43.30
2019-02-27T10:06:49.811Z,42.26
2019-02-27T10:12:14.073Z,41.56
2019-02-27T10:17:37.814Z,39.88
2019-02-27T10:23:02.205Z,37.10
2019-02-27T10:28:26.784Z,35.70
2019-02-27T10:33:51.211Z,35.77
2019-02-27T10:39:16.049Z,35.44
2019-02-27T10:44:40.809Z,34.27
2019-02-27T10:50:05.476Z,32.84
2019-02-27T10:55:28.903Z,33.07
2019-02-27T11:00:52.541Z,32.29
2019-02-27T11:06:16.179Z,31.37
2019-02-27T11:11:40.280Z,31.08
2019-02-27T11:17:04.689Z,30.70
2019-02-27T11:22:31.430Z,31.29
2019-02-27T11:27:53.937Z,28.44
2019-02-27T11:33:25.743Z,28.90
2019-02-27T11:38:43.667Z,27.09
2019-02-27T11:44:08.388Z,26.42
2019-02-27T11:49:33.077Z,27.05
2019-02-27T11:54:57.539Z,26.02
2019-02-27T12:00:26.077Z,26.27
2019-02-27T12:05:50.055Z,25.56
2019-02-27T12:11:14.240Z,24.30
2019-02-27T12:16:39.030Z,23.57
2019-02-27T12:22:03.784Z,23.33
2019-02-27T12:27:47.893Z,23.99
2019-02-27T12:32:56.700Z,22.35
2019-02-27T12:38:19.525Z,22.35
2019-02-27T12:43:44.207Z,22.31
2019-02-27T12:49:09.097Z,21.91
2019-02-27T12:54:33.124Z,21.54
2019-02-27T12:59:57.381Z,20.92
2019-02-27T13:05:26.428Z,21.46
2019-02-27T13:10:48.694Z,21.91
2019-02-27T13:16:14.518Z,20.46
2019-02-27T13:21:39.961Z,21.09
2019-02-27T13:27:06.633Z,19.89
2019-02-27T13:32:29.568Z,19.55
2019-02-27T13:37:53.286Z,19.00
2019-02-27T13:43:17.978Z,18.68
2019-02-27T13:48:42.710Z,17.45
2019-02-27T13:54:07.230Z,17.95
2019-02-27T13:59:30.936Z,16.78
2019-02-27T14:04:57.026Z,15.71
2019-02-27T14:10:21.173Z,17.24
2019-02-27T14:15:45.075Z,17.07
2019-02-27T14:21:08.975Z,17.67
2019-02-27T14:26:32.887Z,17.70
2019-02-27T14:31:56.889Z,18.13
2019-02-27T14:37:21.669Z,17.96
2019-02-27T14:42:45.426Z,16.79
2019-02-27T14:48:09.012Z,18.11
2019-02-27T14:53:33.472Z,17.44
2019-02-27T14:58:58.005Z,18.47
2019-02-27T15:04:22.491Z,19.30
2019-02-27T15:09:47.990Z,19.90
2019-02-27T15:15:18.775Z,20.54
2019-02-27T15:20:43.408Z,19.80
2019-02-27T15:26:09.933Z,20.87
2019-02-27T15:31:34.608Z,20.44
2019-02-27T15:37:00.973Z,20.06
2019-02-27T15:42:24.901Z,19.05
2019-02-27T15:47:49.771Z,20.16
2019-02-27T15:53:15.033Z,19.73
2019-02-27T15:58:39.526Z,20.71
2019-02-27T16:04:03.501Z,21.82
2019-02-27T16:09:29.114Z,21.69
2019-02-27T16:14:53.785Z,21.70
2019-02-27T16:20:19.327Z,21.61
2019-02-27T16:25:43.805Z,22.39
2019-02-27T16:31:07.934Z,23.22
2019-02-27T16:36:36.146Z,24.63
2019-02-27T16:42:01.042Z,25.87
2019-02-27T16:47:23.849Z,26.58
2019-02-27T16:52:48.535Z,27.40
2019-02-27T16:58:12.596Z,28.67
2019-02-27T17:03:36.782Z,30.53
2019-02-27T17:09:01.443Z,31.06
2019-02-27T17:14:26.696Z,32.03
2019-02-27T17:19:52.966Z,34.27
2019-02-27T17:25:17.964Z,33.97
2019-02-27T17:30:42.440Z,33.70
2019-02-27T17:36:06.328Z,33.33
2019-02-27T17:41:30.215Z,34.52
2019-02-27T17:46:54.810Z,34.76
2019-02-27T17:52:19.821Z,35.58
2019-02-27T17:57:46.251Z,36.95
2019-02-27T18:03:10.512Z,37.11
2019-02-27T18:08:35.341Z,36.88
2019-02-27T18:14:00.162Z,37.56
2019-02-27T18:19:24.620Z,37.86
2019-02-27T18:24:49.071Z,38.37
2019-02-27T18:30:15.513Z,38.90
2019-02-27T18:35:40.821Z,38.97
2019-02-27T18:41:05.577Z,40.60
2019-02-27T18:46:30.209Z,40.44
2019-02-27T18:51:54.878Z,40.83
2019-02-27T18:57:19.825Z,41.77
2019-02-27T19:02:44.293Z,42.37
2019-02-27T19:08:08.343Z,43.01
2019-02-27T19:13:32.437Z,42.52
2019-02-27T19:18:57.680Z,41.72
2019-02-27T19:24:26.635Z,42.03
2019-02-27T19:29:48.152Z,42.00
2019-02-27T19:35:13.598Z,43.03
2019-02-27T19:40:38.043Z,43.05
2019-02-27T19:46:04.016Z,42.48
2019-02-27T19:51:27.788Z,42.43
2019-02-27T19:56:51.857Z,41.27
2019-02-27T20:02:16.135Z,42.05
2019-02-27T20:07:40.426Z,42.52
2019-02-27T20:13:04.572Z,41.89
2019-02-27T20:18:29.457Z,43.18
2019-02-27T20:23:53.526Z,43.61
2019-02-27T20:29:18.303Z,44.06
2019-02-27T20:34:45.852Z,44.09
2019-02-27T20:40:09.094Z,43.85
2019-02-27T20:45:33.503Z,43.98
2019-02-27T20:50:57.391Z,44.50
2019-02-27T20:56:21.866Z,45.72
2019-02-27T21:01:47.278Z,46.52
2019-02-27T21:07:11.214Z,47.23
2019-02-27T21:12:37.362Z,47.93
2019-02-27T21:18:02.000Z,48.20
2019-02-27T21:23:26.636Z,48.06
2019-02-27T21:28:58.275Z,47.77
2019-02-27T21:34:19.497Z,47.33
2019-02-27T21:39:42.625Z,46.97
2019-02-27T21:45:07.982Z,47.31
2019-02-27T21:50:32.523Z,47.86
2019-02-27T21:55:56.213Z,47.30
2019-02-27T22:01:22.042Z,48.10
2019-02-27T22:06:46.472Z,48.13
2019-02-27T22:12:10.975Z,48.85
2019-02-27T22:17:36.905Z,49.36
2019-02-27T22:23:02.190Z,49.83
2019-02-27T22:28:28.737Z,50.15
2019-02-27T22:33:56.245Z,50.68
2019-02-27T22:39:19.606Z,50.24
2019-02-27T22:44:43.940Z,51.09
2019-02-27T22:50:09.001Z,51.29
2019-02-27T22:55:32.696Z,51.91
2019-02-27T23:01:09.958Z,52.48
2019-02-27T23:06:35.638Z,53.24
2019-02-27T23:12:00.305Z,53.45
2019-02-27T23:17:24.816Z,53.20
2019-02-27T23:22:49.800Z,53.86
2019-02-27T23:28:13.743Z,53.79
2019-02-27T23:33:38.536Z,53.16
2019-02-27T23:39:03.008Z,53.40
2019-02-27T23:44:28.685Z,53.15
2019-02-27T23:49:52.689Z,53.08
2019-02-27T23:55:16.264Z,53.60
